Terminal Aerodrome Forecast
Issued by NWS Wichita, KS

Home | Current Version | Previous Version | Graphics & Text | Print | Product List | Glossary On
Versions: 1 2 3 4 5 6 7 8 9 10 11 12 13 14
000
FTUS43 KICT 291410 AAA
TAFICT
TAF AMD
KICT 291410Z 2914/3012 35017G25KT P6SM OVC035
     FM292000 35017KT P6SM SCT040
     FM300000 35007KT P6SM BKN250=

USA.gov is the U.S. government's official web portal to all federal, state and local government web resources and services.